createdAt,value
2017-09-08T00:00:57.475Z,99630.41
2017-09-08T00:03:23.555Z,99625.10
2017-09-08T00:05:49.639Z,99625.30
2017-09-08T00:08:15.743Z,99623.90
2017-09-08T00:10:41.800Z,99628.47
2017-09-08T00:13:07.879Z,99623.14
2017-09-08T00:15:33.943Z,99623.51
2017-09-08T00:18:00.059Z,99626.27
2017-09-08T00:20:26.870Z,99621.69
2017-09-08T00:22:52.943Z,99612.95
2017-09-08T00:25:19.035Z,99607.72
2017-09-08T00:27:45.155Z,99602.84
2017-09-08T00:30:11.269Z,99603.30
2017-09-08T00:32:37.321Z,99608.95
2017-09-08T00:35:04.134Z,99609.28
2017-09-08T00:37:30.221Z,99612.83
2017-09-08T00:39:56.297Z,99604.86
2017-09-08T00:42:23.129Z,99618.55
2017-09-08T00:44:49.239Z,99619.06
2017-09-08T00:47:15.363Z,99623.11
2017-09-08T00:49:41.431Z,99614.07
2017-09-08T00:52:08.276Z,99617.62
2017-09-08T00:54:34.375Z,99625.52
2017-09-08T00:57:00.489Z,99619.87
2017-09-08T00:59:26.560Z,99612.17
2017-09-08T01:01:53.364Z,99614.63
2017-09-08T01:04:19.478Z,99619.56
2017-09-08T01:06:45.596Z,99613.42
2017-09-08T01:09:11.682Z,99615.98
2017-09-08T01:11:38.533Z,99608.09
2017-09-08T01:14:04.612Z,99609.76
2017-09-08T01:16:30.704Z,99598.41
2017-09-08T01:18:56.820Z,99600.52
2017-09-08T01:21:22.874Z,99594.28
2017-09-08T01:23:48.956Z,99590.41
2017-09-08T01:26:15.796Z,99591.38
2017-09-08T01:28:42.605Z,99576.81
2017-09-08T01:31:08.676Z,99580.12
2017-09-08T01:33:34.844Z,99578.41
2017-09-08T01:36:00.919Z,99580.45
2017-09-08T01:38:27.729Z,99586.50
2017-09-08T01:40:53.847Z,99578.89
2017-09-08T01:43:19.945Z,99580.58
2017-09-08T01:45:46.021Z,99576.73
2017-09-08T01:48:12.144Z,99580.89
2017-09-08T01:50:38.240Z,99580.58
2017-09-08T01:53:04.359Z,99580.89
2017-09-08T01:55:30.440Z,99580.73
2017-09-08T01:57:57.256Z,99573.89
2017-09-08T02:00:23.353Z,99568.43
2017-09-08T02:02:49.422Z,99568.60
2017-09-08T02:05:15.509Z,99557.26
2017-09-08T02:07:41.633Z,99552.37
2017-09-08T02:10:07.715Z,99543.06
2017-09-08T02:12:34.499Z,99539.77
2017-09-08T02:15:00.565Z,99542.42
2017-09-08T02:17:27.379Z,99541.19
2017-09-08T02:19:53.477Z,99538.09
2017-09-08T02:22:19.545Z,99541.98
2017-09-08T02:24:45.625Z,99540.39
2017-09-08T02:27:11.715Z,99538.50
2017-09-08T02:29:38.561Z,99538.17
2017-09-08T02:32:05.343Z,99535.86
2017-09-08T02:34:31.463Z,99539.03
2017-09-08T02:36:57.528Z,99536.36
2017-09-08T02:39:23.613Z,99538.00
2017-09-08T02:41:49.695Z,99540.14
2017-09-08T02:44:15.779Z,99534.66
2017-09-08T02:46:41.892Z,99542.54
2017-09-08T02:49:08.003Z,99535.09
2017-09-08T02:51:34.112Z,99531.98
2017-09-08T02:54:00.978Z,99528.22
2017-09-08T02:56:27.062Z,99522.61
2017-09-08T02:58:53.129Z,99522.89
2017-09-08T03:01:19.236Z,99516.36
2017-09-08T03:03:45.360Z,99522.45
2017-09-08T03:06:12.204Z,99521.15
2017-09-08T03:08:39.044Z,99519.86
2017-09-08T03:11:05.883Z,99526.17
2017-09-08T03:13:32.740Z,99522.67
2017-09-08T03:15:59.588Z,99519.56
2017-09-08T03:18:25.688Z,99517.39
2017-09-08T03:20:52.536Z,99510.66
2017-09-08T03:23:19.345Z,99513.75
2017-09-08T03:25:45.408Z,99509.98
2017-09-08T03:28:12.225Z,99506.55
2017-09-08T03:30:38.293Z,99513.22
2017-09-08T03:33:05.269Z,99507.64
2017-09-08T03:35:31.345Z,99504.63
2017-09-08T03:37:58.164Z,99503.75
2017-09-08T03:40:24.821Z,99505.55
2017-09-08T03:42:50.893Z,99495.19
2017-09-08T03:45:16.996Z,99495.91
2017-09-08T03:47:43.101Z,99489.83
2017-09-08T03:50:09.948Z,99484.68
2017-09-08T03:52:36.811Z,99481.48
2017-09-08T03:55:03.007Z,99478.61
2017-09-08T03:57:29.063Z,99477.33
2017-09-08T03:59:55.184Z,99483.44
2017-09-08T04:02:22.003Z,99480.66
2017-09-08T04:04:48.808Z,99481.70
2017-09-08T04:07:15.063Z,99481.70
2017-09-08T04:09:41.131Z,99478.15
2017-09-08T04:12:07.213Z,99477.05
2017-09-08T04:14:33.671Z,99478.59
2017-09-08T04:17:00.508Z,99471.40
2017-09-08T04:19:27.352Z,99482.33
2017-09-08T04:21:54.178Z,99470.04
2017-09-08T04:24:20.329Z,99469.59
2017-09-08T04:26:46.430Z,99463.62
2017-09-08T04:29:12.482Z,99464.59
2017-09-08T04:31:39.332Z,99462.27
2017-09-08T04:34:06.189Z,99459.17
2017-09-08T04:36:32.264Z,99449.05
2017-09-08T04:38:58.348Z,99447.63
2017-09-08T04:41:24.440Z,99438.16
2017-09-08T04:43:51.280Z,99434.77
2017-09-08T04:46:17.444Z,99440.55
2017-09-08T04:48:43.525Z,99435.92
2017-09-08T04:51:09.580Z,99434.83
2017-09-08T04:53:35.710Z,99439.56
2017-09-08T04:56:01.767Z,99439.32
2017-09-08T04:58:27.860Z,99436.16
2017-09-08T05:00:53.986Z,99438.64
2017-09-08T05:03:20.100Z,99435.17
2017-09-08T05:05:46.236Z,99436.84
2017-09-08T05:08:12.352Z,99433.86
2017-09-08T05:10:39.229Z,99419.92
2017-09-08T05:13:05.304Z,99422.20
2017-09-08T05:15:32.120Z,99423.50
2017-09-08T05:17:58.237Z,99420.80
2017-09-08T05:20:24.309Z,99425.38
2017-09-08T05:22:51.173Z,99426.19
2017-09-08T05:25:17.256Z,99430.95
2017-09-08T05:27:43.497Z,99424.19
2017-09-08T05:30:10.325Z,99427.27
2017-09-08T05:32:36.413Z,99434.81
2017-09-08T05:35:02.487Z,99415.04
2017-09-08T05:37:29.305Z,99430.48
2017-09-08T05:39:55.405Z,99426.91
2017-09-08T05:42:21.475Z,99428.00
2017-09-08T05:44:47.583Z,99421.47
2017-09-08T05:47:13.705Z,99419.81
2017-09-08T05:49:39.830Z,99427.35
2017-09-08T05:52:05.918Z,99421.05
2017-09-08T05:54:32.004Z,99428.14
2017-09-08T05:56:58.106Z,99424.85
2017-09-08T05:59:24.723Z,99425.47
2017-09-08T06:01:50.795Z,99418.06
2017-09-08T06:04:16.923Z,99415.19
2017-09-08T06:06:50.851Z,99410.80
2017-09-08T06:09:17.688Z,99410.17
2017-09-08T06:11:44.500Z,99399.59
2017-09-08T06:14:10.592Z,99396.43
2017-09-08T06:16:36.695Z,99388.25
2017-09-08T06:19:02.763Z,99390.11
2017-09-08T06:21:28.833Z,99389.47
2017-09-08T06:24:03.722Z,99387.42
2017-09-08T06:26:29.840Z,99385.19
2017-09-08T06:28:55.912Z,99384.59
2017-09-08T06:31:22.032Z,99372.16
2017-09-08T06:33:48.894Z,99376.19
2017-09-08T06:36:14.954Z,99371.84
2017-09-08T06:38:41.058Z,99365.10
2017-09-08T06:41:07.123Z,99357.38
2017-09-08T06:43:33.186Z,99364.23
2017-09-08T06:46:00.026Z,99368.25
2017-09-08T06:48:26.920Z,99353.34
2017-09-08T06:50:53.077Z,99354.05
2017-09-08T06:53:19.136Z,99347.11
2017-09-08T06:55:46.549Z,99344.20
2017-09-08T06:58:12.636Z,99343.58
2017-09-08T07:00:38.763Z,99345.47
2017-09-08T07:03:04.869Z,99349.61
2017-09-08T07:05:30.975Z,99348.57
2017-09-08T07:07:57.819Z,99353.32
2017-09-08T07:10:24.612Z,99347.94
2017-09-08T07:12:50.724Z,99337.80
2017-09-08T07:15:16.845Z,99348.47
2017-09-08T07:17:43.720Z,99335.41
2017-09-08T07:20:09.841Z,99342.14
2017-09-08T07:22:35.942Z,99348.34
2017-09-08T07:25:02.050Z,99352.86
2017-09-08T07:27:28.134Z,99352.42
2017-09-08T07:29:54.227Z,99353.60
2017-09-08T07:32:20.311Z,99349.29
2017-09-08T07:34:47.231Z,99350.66
2017-09-08T07:37:13.307Z,99346.39
2017-09-08T07:39:40.443Z,99350.62
2017-09-08T07:42:07.315Z,99345.53
2017-09-08T07:44:33.405Z,99350.13
2017-09-08T07:47:00.211Z,99349.22
2017-09-08T07:49:26.384Z,99339.58
2017-09-08T07:51:53.204Z,99337.27
2017-09-08T07:54:19.276Z,99331.81
2017-09-08T07:56:45.355Z,99335.38
2017-09-08T07:59:12.220Z,99337.13
2017-09-08T08:01:39.050Z,99331.97
2017-09-08T08:04:06.076Z,99332.04
2017-09-08T08:06:32.243Z,99332.20
2017-09-08T08:08:59.066Z,99330.13
2017-09-08T08:11:25.149Z,99333.44
2017-09-08T08:13:51.239Z,99332.84
2017-09-08T08:16:17.297Z,99342.44
2017-09-08T08:18:43.373Z,99329.39
2017-09-08T08:21:10.214Z,99336.24
2017-09-08T08:23:37.034Z,99333.15
2017-09-08T08:26:03.149Z,99336.70
2017-09-08T08:28:30.075Z,99324.55
2017-09-08T08:30:56.180Z,99327.44
2017-09-08T08:33:22.303Z,99330.64
2017-09-08T08:35:48.373Z,99327.01
2017-09-08T08:38:14.473Z,99325.11
2017-09-08T08:40:40.553Z,99328.70
2017-09-08T08:43:07.363Z,99333.77
2017-09-08T08:45:33.484Z,99328.13
2017-09-08T08:47:59.616Z,99321.96
2017-09-08T08:50:25.743Z,99322.74
2017-09-08T08:52:51.853Z,99327.59
2017-09-08T08:55:17.959Z,99321.78
2017-09-08T08:57:44.069Z,99317.86
2017-09-08T09:00:10.169Z,99314.52
2017-09-08T09:02:37.037Z,99308.15
2017-09-08T09:05:03.919Z,99311.34
2017-09-08T09:07:30.018Z,99307.25
2017-09-08T09:09:56.137Z,99313.89
2017-09-08T09:12:22.253Z,99311.27
2017-09-08T09:14:49.093Z,99314.63
2017-09-08T09:17:15.898Z,99311.33
2017-09-08T09:19:42.012Z,99304.41
2017-09-08T09:22:08.141Z,99313.66
2017-09-08T09:24:34.263Z,99298.90
2017-09-08T09:27:00.336Z,99295.26
2017-09-08T09:29:26.413Z,99278.55
2017-09-08T09:31:52.543Z,99277.62
2017-09-08T09:34:18.632Z,99266.19
2017-09-08T09:36:45.495Z,99270.13
2017-09-08T09:39:11.623Z,99266.34
2017-09-08T09:41:37.755Z,99264.92
2017-09-08T09:44:03.847Z,99268.46
2017-09-08T09:46:29.932Z,99262.18
2017-09-08T09:48:56.020Z,99269.98
2017-09-08T09:51:22.099Z,99263.59
2017-09-08T09:53:49.764Z,99252.77
2017-09-08T09:56:16.656Z,99248.84
2017-09-08T09:58:42.775Z,99266.20
2017-09-08T10:01:08.878Z,99249.12
2017-09-08T10:03:35.720Z,99238.42
2017-09-08T10:06:02.550Z,99232.46
2017-09-08T10:08:28.634Z,99232.10
2017-09-08T10:10:54.743Z,99231.59
2017-09-08T10:13:20.806Z,99225.17
2017-09-08T10:15:46.946Z,99218.80
2017-09-08T10:18:13.151Z,99207.44
2017-09-08T10:20:39.269Z,99203.20
2017-09-08T10:23:05.379Z,99219.00
2017-09-08T10:25:31.533Z,99210.91
2017-09-08T10:27:57.653Z,99239.69
2017-09-08T10:30:23.773Z,99227.22
2017-09-08T10:32:49.902Z,99216.34
2017-09-08T10:35:17.007Z,99226.31
2017-09-08T10:37:43.129Z,99214.73
2017-09-08T10:40:09.967Z,99214.27
2017-09-08T10:42:36.832Z,99213.34
2017-09-08T10:45:02.971Z,99212.41
2017-09-08T10:47:29.167Z,99225.70
2017-09-08T10:49:56.073Z,99219.75
2017-09-08T10:52:22.205Z,99222.82
2017-09-08T10:54:48.369Z,99235.26
2017-09-08T10:57:15.272Z,99218.39
2017-09-08T10:59:41.532Z,99223.59
2017-09-08T11:02:08.437Z,99224.42
2017-09-08T11:04:34.608Z,99220.97
2017-09-08T11:07:01.491Z,99234.02
2017-09-08T11:09:27.680Z,99216.99
2017-09-08T11:11:54.598Z,99215.08
2017-09-08T11:14:20.794Z,99218.03
2017-09-08T11:16:46.938Z,99212.08
2017-09-08T11:19:13.098Z,99228.67
2017-09-08T11:21:39.940Z,99214.66
2017-09-08T11:24:06.116Z,99210.91
2017-09-08T11:26:33.252Z,99227.25
2017-09-08T11:28:59.442Z,99218.17
2017-09-08T11:31:25.545Z,99226.91
2017-09-08T11:33:57.963Z,99221.02
2017-09-08T11:36:30.864Z,99222.81
2017-09-08T11:38:56.960Z,99229.48
2017-09-08T11:41:23.101Z,99226.52
2017-09-08T11:43:49.474Z,99230.41
2017-09-08T11:46:15.592Z,99218.23
2017-09-08T11:48:41.703Z,99210.75
2017-09-08T11:51:07.884Z,99213.56
2017-09-08T11:53:33.993Z,99202.83
2017-09-08T11:56:00.243Z,99194.48
2017-09-08T11:58:26.478Z,99189.42
2017-09-08T12:00:52.622Z,99179.88
2017-09-08T12:03:18.756Z,99182.47
2017-09-08T12:05:45.796Z,99183.30
2017-09-08T12:08:12.723Z,99163.92
2017-09-08T12:10:39.666Z,99168.23
2017-09-08T12:13:05.781Z,99191.61
2017-09-08T12:15:32.022Z,99174.32
2017-09-08T12:17:58.144Z,99181.16
2017-09-08T12:20:24.261Z,99170.86
2017-09-08T12:22:50.349Z,99168.77
2017-09-08T12:25:16.585Z,99157.05
2017-09-08T12:27:42.701Z,99153.84
2017-09-08T12:30:08.837Z,99148.72
2017-09-08T12:32:34.973Z,99176.66
2017-09-08T12:35:01.099Z,99157.94
2017-09-08T12:37:27.369Z,99148.30
2017-09-08T12:39:53.535Z,99156.13
2017-09-08T12:42:19.638Z,99156.34
2017-09-08T12:44:45.751Z,99145.06
2017-09-08T12:47:12.617Z,99142.27
2017-09-08T12:49:39.517Z,99147.50
2017-09-08T12:52:05.923Z,99156.27
2017-09-08T12:54:32.020Z,99160.87
2017-09-08T12:56:58.117Z,99158.05
2017-09-08T12:59:24.429Z,99156.44
2017-09-08T13:01:50.494Z,99152.66
2017-09-08T13:04:16.590Z,99130.39
2017-09-08T13:06:42.687Z,99141.05
2017-09-08T13:09:08.745Z,99139.04
2017-09-08T13:11:34.864Z,99138.03
2017-09-08T13:14:00.957Z,99140.50
2017-09-08T13:16:27.020Z,99137.66
2017-09-08T13:18:53.129Z,99137.30
2017-09-08T13:21:19.229Z,99135.50
2017-09-08T13:23:45.362Z,99132.28
2017-09-08T13:26:11.456Z,99127.25
2017-09-08T13:28:38.302Z,99121.49
2017-09-08T13:31:04.444Z,99129.10
2017-09-08T13:33:30.582Z,99120.21
2017-09-08T13:35:56.676Z,99125.17
2017-09-08T13:38:22.748Z,99130.30
2017-09-08T13:40:48.899Z,99127.64
2017-09-08T13:43:15.100Z,99124.49
2017-09-08T13:45:41.222Z,99102.25
2017-09-08T13:48:08.302Z,99111.48
2017-09-08T13:50:34.366Z,99111.52
2017-09-08T13:53:00.726Z,99112.16
2017-09-08T13:55:26.796Z,99114.07
2017-09-08T13:57:52.891Z,99101.81
2017-09-08T14:00:19.032Z,99090.49
2017-09-08T14:02:45.212Z,99102.13
2017-09-08T14:05:11.340Z,99091.68
2017-09-08T14:07:37.450Z,99104.86
2017-09-08T14:10:04.290Z,99105.17
2017-09-08T14:12:30.384Z,99108.45
2017-09-08T14:14:56.474Z,99114.22
2017-09-08T14:17:22.612Z,99105.38
2017-09-08T14:19:48.712Z,99097.29
2017-09-08T14:22:14.820Z,99087.96
2017-09-08T14:24:41.733Z,99098.61
2017-09-08T14:27:07.826Z,99091.30
2017-09-08T14:29:33.928Z,99091.61
2017-09-08T14:32:00.027Z,99087.20
2017-09-08T14:34:26.851Z,99084.34
2017-09-08T14:36:52.997Z,99087.47
2017-09-08T14:39:19.824Z,99078.80
2017-09-08T14:41:46.699Z,99075.48
2017-09-08T14:44:13.561Z,99070.77
2017-09-08T14:46:39.658Z,99070.95
2017-09-08T14:49:06.493Z,99070.18
2017-09-08T14:51:32.763Z,99077.70
2017-09-08T14:53:58.871Z,99078.36
2017-09-08T14:56:25.003Z,99074.52
2017-09-08T14:58:51.124Z,99069.77
2017-09-08T15:01:17.217Z,99077.80
2017-09-08T15:03:43.321Z,99072.78
2017-09-08T15:06:09.420Z,99077.94
2017-09-08T15:08:35.534Z,99068.78
2017-09-08T15:11:01.642Z,99071.68
2017-09-08T15:13:28.447Z,99062.11
2017-09-08T15:15:54.548Z,99070.48
2017-09-08T15:18:20.685Z,99060.34
2017-09-08T15:20:46.803Z,99066.07
2017-09-08T15:23:13.040Z,99065.14
2017-09-08T15:25:40.011Z,99062.86
2017-09-08T15:28:06.098Z,99058.16
2017-09-08T15:30:32.227Z,99056.98
2017-09-08T15:32:58.371Z,99051.84
2017-09-08T15:35:24.472Z,99053.49
2017-09-08T15:37:50.545Z,99046.63
2017-09-08T15:40:16.629Z,99059.22
2017-09-08T15:42:42.708Z,99044.14
2017-09-08T15:45:08.774Z,99046.84
2017-09-08T15:47:34.842Z,99034.19
2017-09-08T15:50:00.936Z,99033.73
2017-09-08T15:52:27.001Z,99034.52
2017-09-08T15:54:53.099Z,99031.48
2017-09-08T15:57:19.186Z,99032.37
2017-09-08T15:59:45.997Z,99030.42
2017-09-08T16:02:12.091Z,99030.36
2017-09-08T16:04:38.223Z,99032.56
2017-09-08T16:07:04.380Z,99021.99
2017-09-08T16:09:30.496Z,99019.88
2017-09-08T16:11:56.601Z,99023.05
2017-09-08T16:14:22.994Z,99018.78
2017-09-08T16:16:49.074Z,99016.08
2017-09-08T16:19:15.174Z,99019.00
2017-09-08T16:21:41.232Z,99013.64
2017-09-08T16:24:07.444Z,99010.05
2017-09-08T16:26:33.517Z,98999.84
2017-09-08T16:28:59.746Z,98995.67
2017-09-08T16:31:26.608Z,98989.00
2017-09-08T16:33:52.713Z,98994.58
2017-09-08T16:36:18.784Z,98998.22
2017-09-08T16:38:44.881Z,98996.50
2017-09-08T16:41:10.994Z,99000.34
2017-09-08T16:43:37.972Z,98993.19
2017-09-08T16:46:04.040Z,98990.34
2017-09-08T16:48:30.864Z,98989.49
2017-09-08T16:50:56.969Z,98991.89
2017-09-08T16:53:23.076Z,98985.16
2017-09-08T16:55:49.180Z,98983.47
2017-09-08T16:58:16.028Z,98977.36
2017-09-08T17:00:42.861Z,98978.59
2017-09-08T17:03:09.709Z,98975.35
2017-09-08T17:05:36.543Z,98970.80
2017-09-08T17:08:03.403Z,98976.19
2017-09-08T17:10:30.259Z,98979.19
2017-09-08T17:12:56.341Z,98979.30
2017-09-08T17:15:22.501Z,98974.31
2017-09-08T17:17:49.358Z,98978.73
2017-09-08T17:20:15.443Z,98977.57
2017-09-08T17:22:41.556Z,98974.02
2017-09-08T17:25:07.660Z,98978.67
2017-09-08T17:27:33.777Z,98983.66
2017-09-08T17:30:01.634Z,98981.55
2017-09-08T17:32:29.298Z,98981.97
2017-09-08T17:34:56.167Z,98982.48
2017-09-08T17:37:22.281Z,98980.52
2017-09-08T17:39:48.388Z,98985.19
2017-09-08T17:42:14.596Z,98983.03
2017-09-08T17:44:40.706Z,98985.10
2017-09-08T17:47:07.568Z,98984.48
2017-09-08T17:49:33.650Z,98982.23
2017-09-08T17:52:00.709Z,98988.80
2017-09-08T17:54:27.539Z,98982.50
2017-09-08T17:56:53.732Z,98980.84
2017-09-08T17:59:19.826Z,98985.84
2017-09-08T18:01:46.690Z,98982.39
2017-09-08T18:04:12.790Z,98986.59
2017-09-08T18:06:38.904Z,98986.31
2017-09-08T18:09:04.980Z,98981.70
2017-09-08T18:11:31.097Z,98981.31
2017-09-08T18:13:57.217Z,98981.05
2017-09-08T18:16:23.359Z,98981.96
2017-09-08T18:18:49.480Z,98993.50
2017-09-08T18:21:15.582Z,98994.02
2017-09-08T18:23:42.417Z,98991.25
2017-09-08T18:26:09.340Z,98989.59
2017-09-08T18:28:35.425Z,98988.30
2017-09-08T18:31:02.928Z,98989.33
2017-09-08T18:33:29.072Z,98972.89
2017-09-08T18:35:56.151Z,98989.48
2017-09-08T18:41:18.636Z,98975.86
2017-09-08T18:43:44.758Z,98975.45
2017-09-08T18:46:11.132Z,98973.39
2017-09-08T18:48:37.204Z,98971.30
2017-09-08T18:54:12.989Z,98976.23
2017-09-08T18:56:39.849Z,98965.76
2017-09-08T18:59:05.993Z,98966.55
2017-09-08T19:01:32.101Z,98959.88
2017-09-08T19:03:58.173Z,98956.17
2017-09-08T19:06:24.275Z,98951.66
2017-09-08T19:08:50.335Z,98951.55
2017-09-08T19:11:16.392Z,98952.58
2017-09-08T19:13:42.541Z,98958.52
2017-09-08T19:16:08.689Z,98952.23
2017-09-08T19:18:34.811Z,98954.53
2017-09-08T19:21:00.897Z,98957.00
2017-09-08T19:23:27.709Z,98948.77
2017-09-08T19:25:53.805Z,98951.22
2017-09-08T19:28:19.929Z,98948.11
2017-09-08T19:30:46.039Z,98950.11
2017-09-08T19:33:12.285Z,98947.30
2017-09-08T19:35:38.362Z,98944.20
2017-09-08T19:38:05.227Z,98944.02
2017-09-08T19:40:31.355Z,98940.73
2017-09-08T19:42:57.443Z,98941.16
2017-09-08T19:45:23.531Z,98941.34
2017-09-08T19:47:49.627Z,98934.05
2017-09-08T19:50:15.705Z,98934.45
2017-09-08T19:52:41.835Z,98939.55
2017-09-08T19:55:07.950Z,98934.67
2017-09-08T19:57:34.126Z,98936.03
2017-09-08T20:00:00.997Z,98935.09
2017-09-08T20:02:27.192Z,98938.02
2017-09-08T20:04:54.050Z,98931.08
2017-09-08T20:07:20.263Z,98928.31
2017-09-08T20:09:46.390Z,98930.58
2017-09-08T20:12:13.298Z,98925.12
2017-09-08T20:14:39.409Z,98926.95
2017-09-08T20:17:05.557Z,98925.72
2017-09-08T20:19:31.672Z,98917.25
2017-09-08T20:21:57.750Z,98921.29
2017-09-08T20:24:23.852Z,98914.69
2017-09-08T20:26:50.721Z,98909.31
2017-09-08T20:29:18.039Z,98907.97
2017-09-08T20:31:44.144Z,98909.22
2017-09-08T20:34:10.304Z,98907.44
2017-09-08T20:36:36.396Z,98905.59
2017-09-08T20:39:02.524Z,98899.70
2017-09-08T20:41:28.721Z,98904.45
2017-09-08T20:43:54.881Z,98897.83
2017-09-08T20:46:20.976Z,98900.72
2017-09-08T20:48:47.245Z,98899.17
2017-09-08T20:51:13.322Z,98900.01
2017-09-08T20:53:39.406Z,98893.49
2017-09-08T20:56:05.528Z,98886.03
2017-09-08T20:58:31.625Z,98879.01
2017-09-08T21:00:57.696Z,98874.56
2017-09-08T21:03:24.537Z,98862.78
2017-09-08T21:05:52.052Z,98857.49
2017-09-08T21:08:19.090Z,98856.97
2017-09-08T21:10:45.186Z,98859.67
2017-09-08T21:13:12.022Z,98862.02
2017-09-08T21:15:38.833Z,98856.03
2017-09-08T21:18:04.925Z,98849.50
2017-09-08T21:20:31.011Z,98850.94
2017-09-08T21:22:57.845Z,98843.16
2017-09-08T21:25:23.973Z,98844.64
2017-09-08T21:27:50.793Z,98841.20
2017-09-08T21:30:16.855Z,98844.52
2017-09-08T21:32:43.697Z,98847.60
2017-09-08T21:35:10.551Z,98847.20
2017-09-08T21:37:37.353Z,98846.78
2017-09-08T21:40:03.453Z,98846.02
2017-09-08T21:42:29.514Z,98847.05
2017-09-08T21:44:55.623Z,98843.44
2017-09-08T21:47:21.685Z,98840.75
2017-09-08T21:49:48.500Z,98842.27
2017-09-08T21:52:14.588Z,98840.71
2017-09-08T21:54:40.696Z,98835.02
2017-09-08T21:57:06.776Z,98833.26
2017-09-08T21:59:32.836Z,98828.52
2017-09-08T22:01:59.656Z,98819.33
2017-09-08T22:04:25.700Z,98821.30
2017-09-08T22:06:52.544Z,98822.80
2017-09-08T22:09:19.350Z,98823.63
2017-09-08T22:11:45.420Z,98821.11
2017-09-08T22:14:11.500Z,98816.48
2017-09-08T22:16:37.608Z,98813.84
2017-09-08T22:19:03.720Z,98813.31
2017-09-08T22:21:29.812Z,98808.05
2017-09-08T22:23:56.654Z,98801.46
2017-09-08T22:26:23.484Z,98796.61
2017-09-08T22:28:49.571Z,98794.56
2017-09-08T22:31:15.635Z,98795.59
2017-09-08T22:33:41.737Z,98787.94
2017-09-08T22:36:07.801Z,98790.22
2017-09-08T22:38:34.601Z,98791.88
2017-09-08T22:41:00.679Z,98777.00
2017-09-08T22:43:26.743Z,98775.16
2017-09-08T22:45:52.850Z,98777.20
2017-09-08T22:48:18.933Z,98771.61
2017-09-08T22:50:45.754Z,98773.17
2017-09-08T22:53:11.853Z,98773.87
2017-09-08T22:55:37.945Z,98770.48
2017-09-08T22:58:04.769Z,98770.59
2017-09-08T23:00:31.776Z,98770.30
2017-09-08T23:02:57.840Z,98770.48
2017-09-08T23:05:24.661Z,98774.30
2017-09-08T23:07:50.753Z,98771.32
2017-09-08T23:10:16.918Z,98768.32
2017-09-08T23:12:43.040Z,98769.89
2017-09-08T23:15:09.147Z,98770.91
2017-09-08T23:17:35.207Z,98762.51
2017-09-08T23:20:01.281Z,98759.50
2017-09-08T23:22:27.344Z,98758.39
2017-09-08T23:24:53.454Z,98756.57
2017-09-08T23:27:19.598Z,98761.71
2017-09-08T23:29:45.677Z,98758.07
2017-09-08T23:32:11.752Z,98758.84
2017-09-08T23:34:38.572Z,98754.97
2017-09-08T23:37:04.647Z,98746.03
2017-09-08T23:39:31.486Z,98742.52
2017-09-08T23:41:58.280Z,98737.73
2017-09-08T23:44:24.386Z,98732.08
2017-09-08T23:46:50.482Z,98730.10
2017-09-08T23:49:17.320Z,98728.66
2017-09-08T23:51:44.176Z,98728.86
2017-09-08T23:54:11.003Z,98727.20
2017-09-08T23:56:37.816Z,98724.41
2017-09-08T23:59:03.885Z,98726.88
